, AK

(GMT )
Golovin

Weather History for PAGL - November, 2012

Change the Weather History Date:

Saturday, November 3, 2012

  Actual Average Record
Temperature  
Mean Temperature 12 °F -  
Max Temperature 15 °F - - ()
Min Temperature 10 °F - - ()
Degree Days  
Heating Degree Days 52    
Moisture  
Dew Point -1 °F    
Average Humidity 56    
Maximum Humidity 67    
Minimum Humidity 45    
Precipitation  
Precipitation 0.00 in - - ()
Sea Level Pressure  
Sea Level Pressure 30.02 in    
Wind  
Wind Speed 19 mph (North)    
Max Wind Speed 25 mph    
Max Gust Speed 34 mph    
Visibility 10 miles    
Events      
Averages and records for this station are not official NWS values.
T = Trace of Precipitation, MM = Missing Value Source: NWS Daily Summary

Daily Weather History Graph

Daily Weather History Graph

Search for Another Location

Airport or City:

Trip Planner

Search our weather history database for the weather conditions in past years. The results will help you decide how hot, cold, wet, or windy it might be!

Date:

Astronomy

Nov. 03, 2012 Rise Set
Actual Time 10:47 AM AKDT 6:23 PM AKDT
Civil Twilight 9:51 AM AKDT 7:18 PM AKDT
Nautical Twilight 8:52 AM AKDT 8:17 PM AKDT
Astronomical Twilight 7:56 AM AKDT 9:13 PM AKDT
Moon 9:34 PM AKDT (11/3) 3:44 PM AKDT (11/3)
Length of Visible Light 9h 27m
Length of Day
7h 36m
Waning Gibbous, 79% of the Moon is Illuminated
Nov 3
Waning Gibbous
Nov 6
Last Quarter
Nov 13
New
Nov 20
First Quarter
Nov 28
Full

Hourly Weather History & Observations

Time (AKDT) Temp. Windchill Dew Point Humidity Pressure Visibility Wind Dir Wind Speed Gust Speed Precip Events Conditions
12:16 AM 14.0 °F -5.1 °F 1.4 °F 57% 29.98 in 10.0 mi North 24.2 mph 32.2 mph N/A   Clear
12:36 AM 14.0 °F -5.5 °F 1.4 °F 57% 29.98 in 10.0 mi North 25.3 mph 32.2 mph N/A   Clear
12:56 AM 14.0 °F -3.9 °F 1.4 °F 57% 29.98 in 10.0 mi North 20.7 mph 27.6 mph N/A   Clear
1:16 AM 14.0 °F -4.7 °F 1.4 °F 57% 29.99 in 10.0 mi North 23.0 mph 31.1 mph N/A   Clear
1:36 AM 14.0 °F -5.5 °F 1.4 °F 57% 29.98 in 10.0 mi North 25.3 mph 31.1 mph N/A   Clear
1:56 AM 14.0 °F -3.4 °F 1.4 °F 57% 29.99 in 10.0 mi North 19.6 mph 31.1 mph N/A   Clear
2:16 AM 12.2 °F -6.3 °F 1.4 °F 62% 29.99 in 10.0 mi North 20.7 mph 29.9 mph N/A   Clear
2:36 AM 12.2 °F -7.9 °F 1.4 °F 62% 29.99 in 10.0 mi North 25.3 mph 32.2 mph N/A   Clear
2:56 AM 12.2 °F -5.8 °F 1.4 °F 62% 29.99 in 10.0 mi North 19.6 mph 29.9 mph N/A   Clear
3:16 AM 12.2 °F -7.1 °F 1.4 °F 62% 29.99 in 10.0 mi North 23.0 mph 31.1 mph N/A   Clear
3:36 AM 12.2 °F -6.3 °F 1.4 °F 62% 29.98 in 10.0 mi North 20.7 mph 29.9 mph N/A   Clear
3:56 AM 12.2 °F -6.3 °F 1.4 °F 62% 29.99 in 10.0 mi North 20.7 mph 26.5 mph N/A   Clear
4:16 AM 12.2 °F -4.3 °F 1.4 °F 62% 30.00 in 10.0 mi North 16.1 mph 26.5 mph N/A   Clear
4:36 AM 12.2 °F -5.3 °F 1.4 °F 62% 30.01 in 10.0 mi NNE 18.4 mph 26.5 mph N/A   Clear
4:56 AM 12.2 °F -6.7 °F -0.4 °F 57% 30.00 in 10.0 mi NNE 21.9 mph 27.6 mph N/A   Clear
5:16 AM 12.2 °F -7.5 °F 1.4 °F 62% 30.00 in 10.0 mi NNE 24.2 mph 28.8 mph N/A   Clear
5:36 AM 12.2 °F -6.7 °F 1.4 °F 62% 30.00 in 10.0 mi NNE 21.9 mph 34.5 mph N/A   Clear
5:56 AM 12.2 °F -6.3 °F -0.4 °F 57% 30.00 in 10.0 mi North 20.7 mph 28.8 mph N/A   Clear
6:16 AM 10.4 °F -7.7 °F 1.4 °F 67% 30.00 in 10.0 mi North 18.4 mph 27.6 mph N/A   Clear
6:36 AM 10.4 °F -6.6 °F 1.4 °F 67% 30.00 in 10.0 mi North 16.1 mph 20.7 mph N/A   Clear
6:56 AM 10.4 °F -9.5 °F -0.4 °F 62% 30.00 in 10.0 mi North 23.0 mph - N/A   Clear
7:16 AM 12.2 °F -7.1 °F -0.4 °F 57% 30.00 in 10.0 mi NNE 23.0 mph 29.9 mph N/A   Clear
7:36 AM 10.4 °F -9.5 °F -0.4 °F 62% 30.00 in 10.0 mi North 23.0 mph 31.1 mph N/A   Clear
7:56 AM 10.4 °F -8.6 °F -0.4 °F 62% 29.99 in 10.0 mi North 20.7 mph 29.9 mph N/A   Clear
8:16 AM 12.2 °F -6.7 °F -0.4 °F 57% 30.00 in 10.0 mi North 21.9 mph 29.9 mph N/A   Clear
8:36 AM 12.2 °F -3.1 °F -0.4 °F 57% 30.01 in 10.0 mi North 13.8 mph 27.6 mph N/A   Clear
8:56 AM 12.2 °F 0.7 °F -0.4 °F 57% 30.01 in 10.0 mi NNW 8.1 mph - N/A   Clear
9:16 AM 10.4 °F -6.0 °F -0.4 °F 62% 30.02 in 10.0 mi North 15.0 mph - N/A   Clear
9:36 AM 10.4 °F -8.6 °F -0.4 °F 62% 30.02 in 10.0 mi NNE 20.7 mph 25.3 mph N/A   Clear
9:56 AM 12.2 °F -6.3 °F -0.4 °F 57% 30.02 in 10.0 mi NNE 20.7 mph 31.1 mph N/A   Clear
10:16 AM 12.2 °F -3.7 °F -2.2 °F 53% 30.02 in 10.0 mi NNE 15.0 mph - N/A   Clear
10:36 AM 12.2 °F -4.3 °F -2.2 °F 53% 30.03 in 10.0 mi North 16.1 mph 20.7 mph N/A   Clear
10:56 AM 12.2 °F -3.7 °F -2.2 °F 53% 30.03 in 10.0 mi North 15.0 mph - N/A   Clear
11:16 AM 12.2 °F -4.8 °F -2.2 °F 53% 30.04 in 10.0 mi North 17.3 mph 23.0 mph N/A   Clear
11:36 AM 12.2 °F -1.0 °F -0.4 °F 57% 30.04 in 10.0 mi North 10.4 mph 21.9 mph N/A   Clear
11:56 AM 12.2 °F -1.0 °F -2.2 °F 53% 30.04 in 10.0 mi NNW 10.4 mph 16.1 mph N/A   Clear
12:16 PM 12.2 °F -2.5 °F -0.4 °F 57% 30.03 in 10.0 mi NNW 12.7 mph 20.7 mph N/A   Clear
12:36 PM 12.2 °F -1.8 °F -0.4 °F 57% 30.03 in 10.0 mi NNW 11.5 mph 18.4 mph N/A   Clear
12:56 PM 14.0 °F 2.0 °F -2.2 °F 49% 30.03 in 10.0 mi North 9.2 mph - N/A   Clear
1:16 PM 14.0 °F -2.0 °F 1.4 °F 57% 30.03 in 10.0 mi North 16.1 mph 21.9 mph N/A   Clear
1:36 PM 15.8 °F 0.3 °F -0.4 °F 49% 30.03 in 10.0 mi North 16.1 mph 24.2 mph N/A   Clear
1:56 PM 15.8 °F -0.2 °F -0.4 °F 49% 30.03 in 10.0 mi North 17.3 mph 21.9 mph N/A   Clear
2:16 PM 15.8 °F 0.3 °F -0.4 °F 49% 30.02 in 10.0 mi North 16.1 mph 24.2 mph N/A   Clear
2:36 PM 15.8 °F -0.2 °F -0.4 °F 49% 30.03 in 10.0 mi North 17.3 mph 23.0 mph N/A   Clear
2:56 PM 15.8 °F -0.6 °F -0.4 °F 49% 30.02 in 10.0 mi North 18.4 mph 24.2 mph N/A   Clear
3:16 PM 15.8 °F -0.2 °F -0.4 °F 49% 30.02 in 10.0 mi North 17.3 mph 24.2 mph N/A   Clear
3:36 PM 15.8 °F -0.2 °F -0.4 °F 49% 30.02 in 10.0 mi North 17.3 mph 23.0 mph N/A   Clear
3:56 PM 15.8 °F 0.3 °F -2.2 °F 45% 30.02 in 10.0 mi North 16.1 mph 21.9 mph N/A   Clear
4:16 PM 15.8 °F 0.9 °F -0.4 °F 49% 30.02 in 10.0 mi North 15.0 mph 19.6 mph N/A   Clear
4:36 PM 15.8 °F 2.1 °F -0.4 °F 49% 30.02 in 10.0 mi North 12.7 mph 23.0 mph N/A   Clear
4:56 PM 15.8 °F 2.7 °F -0.4 °F 49% 30.02 in 10.0 mi North 11.5 mph 19.6 mph N/A   Clear
5:16 PM 14.0 °F -2.0 °F -2.2 °F 49% 30.01 in 10.0 mi North 16.1 mph 24.2 mph N/A   Clear
5:36 PM 14.0 °F -2.5 °F -0.4 °F 53% 30.01 in 10.0 mi North 17.3 mph 23.0 mph N/A   Clear
5:56 PM 12.2 °F -2.5 °F -2.2 °F 53% 30.02 in 10.0 mi North 12.7 mph - N/A   Clear
6:16 PM 12.2 °F -1.0 °F -2.2 °F 53% 30.03 in 10.0 mi North 10.4 mph - N/A   Clear
6:36 PM 12.2 °F -1.0 °F -2.2 °F 53% 30.03 in 10.0 mi North 10.4 mph - N/A   Clear
6:56 PM 12.2 °F -2.5 °F -2.2 °F 53% 30.03 in 10.0 mi North 12.7 mph - N/A   Clear
7:16 PM 10.4 °F -5.4 °F -2.2 °F 57% 30.03 in 10.0 mi North 13.8 mph - N/A   Clear
7:36 PM 10.4 °F -4.8 °F -2.2 °F 57% 30.03 in 10.0 mi North 12.7 mph - N/A   Clear
7:56 PM 10.4 °F -3.3 °F -2.2 °F 57% 30.03 in 10.0 mi North 10.4 mph - N/A   Clear
8:16 PM 10.4 °F -2.4 °F -2.2 °F 57% 30.04 in 10.0 mi NNW 9.2 mph - N/A   Clear
8:36 PM 10.4 °F -1.5 °F -0.4 °F 62% 30.04 in 10.0 mi North 8.1 mph - N/A   Clear
8:56 PM 10.4 °F -4.8 °F -2.2 °F 57% 30.04 in 10.0 mi North 12.7 mph - N/A   Clear
9:16 PM 10.4 °F -4.8 °F -0.4 °F 62% 30.03 in 10.0 mi North 12.7 mph - N/A   Clear
9:36 PM 10.4 °F -5.4 °F -0.4 °F 62% 30.03 in 10.0 mi NNW 13.8 mph - N/A   Clear
9:56 PM 10.4 °F -6.0 °F -2.2 °F 57% 30.03 in 10.0 mi North 15.0 mph - N/A   Clear
10:16 PM 10.4 °F -7.2 °F -2.2 °F 57% 30.03 in 10.0 mi North 17.3 mph - N/A   Clear
10:36 PM 10.4 °F -5.4 °F -2.2 °F 57% 30.03 in 10.0 mi North 13.8 mph - N/A   Clear
10:56 PM 10.4 °F -7.7 °F -2.2 °F 57% 30.03 in 10.0 mi North 18.4 mph - N/A   Clear
11:16 PM 10.4 °F -6.0 °F -2.2 °F 57% 30.04 in 10.0 mi North 15.0 mph - N/A   Clear
11:36 PM 10.4 °F -5.4 °F -2.2 °F 57% 30.04 in 10.0 mi North 13.8 mph - N/A   Clear
11:56 PM 10.4 °F -4.1 °F -2.2 °F 57% 30.04 in 10.0 mi North 11.5 mph - N/A   Clear